Aeroporto :
LOGIN :

Iscrizione | Disclaimer

   EN    FR    IT 

 










Sommario :    VFR   VFR Marginale   IFR   IFR Intensivo   IFR Molto Intensivo
Visibilità : 
Base nubi : 
>= 8 km
>= 3000ft
5 / 8 km
1000 / 3000 ft
1500m / 5 km
500 / 1000 ft
800 / 1500m
200 / 500 ft
< 800m
< 200 ft
Simboli :   Temporali  Nebbia  Neve Forte  Precipitazioni Forti  Vento > 20 kt
SIGMETs :   Varie  Temporali  Ghiacco  Turbolenza  Onda orograficha  Ceneri Vulcaniche






- Altitudine del aeroporto : 1036 ft
- Codice IATA : CLJ


LRCL - Cluj-Napoca International

ULTIMO METAR :
  • 062200Z 09003KT 070V130 CAVOK 02/M05 Q1033

METARs OBSOLETI :
  • 062130Z VRB03KT CAVOK 02/M06 Q1033
  • 062100Z 11003KT 080V140 CAVOK 04/M05 Q1033
  • 062030Z VRB01KT CAVOK 04/M06 Q1033
  • 062000Z 08001KT CAVOK 05/M06 Q1033
  • 061930Z VRB02KT CAVOK 05/M07 Q1033

TAF TAF LRCL
Valido dal 06 a 21 ore il 07 a 06 ore UTC


062000Z 0621/0706 VRB04KT CAVOK



MetMap, La meteo Aeronautica in un colpo d'occhio ! - Copyright ORBIFLY Dicembre 2007 - Disclaimer

ORBIFLY MET'MAP TEAM :

Programmazione e sviluppo : Alexandra Zaïnal
Concezione : Baudouin d'Aumeries
Aiuto per la programmazione : Marc-Olivier Méhu
Supporto tecnico e logistico : Manuel Goepfert
Aiuto per la traduzione : Arnaldo La Scala

Contatto : metmap@orbifly.com




FONTI E CREDITI :

   NOAA